CFG1XL LEPA-EDLW
Flight info
| Callsign | CFG1XL |
|---|---|
| Flight time | 1h 54m |
| Altitude | 34000 |
| Route | GALAT DCT RODRA DCT VNV DCT ANTON DCT BISES DCT SADUR DCT CAVES DCT LATRO DCT OLOXO DCT OKABI DCT TOU DCT ADABI DCT BOKNO DCT DIBES DCT VIQAQ DCT TSU UN858 OQQAL DCT RANUX DCT VALEK DCT LUTAX UM163 DIK T856 AFNAF M170 ADEMI ADEMI2A |
| Aircraft | A21N/M-SBDE3FGHIJ1J4J7LORVWXYZ/SB2D1G1 |
Departure
| Time | 2026-05-05 12:43 |
|---|---|
| Airport | Palma de Mallorca Airport (LEPA) |
Arrival
| Time | 2026-05-05 14:37 |
|---|---|
| Airport | Dortmund Airport (EDLW) |
| Time | Latitude | Longitude | Altitude | Speed | Heading |
|---|---|---|---|---|---|
| 2026-05-05 11:57 | 39.55046 | 2.73535 | 44 ft | 0 kts | 165° |
| 2026-05-05 12:33 | 39.55065 | 2.73529 | 44 ft | 3 kts | 165° |
| 2026-05-05 12:34 | 39.55083 | 2.73522 | 39 ft | 1 kts | 165° |
| 2026-05-05 12:34 | 39.55100 | 2.73514 | 40 ft | 3 kts | 147° |
| 2026-05-05 12:34 | 39.55114 | 2.73498 | 40 ft | 3 kts | 116° |
| 2026-05-05 12:34 | 39.55118 | 2.73475 | 40 ft | 3 kts | 81° |
| 2026-05-05 12:35 | 39.55112 | 2.73453 | 40 ft | 3 kts | 59° |
| 2026-05-05 12:35 | 39.55101 | 2.73431 | 41 ft | 3 kts | 59° |
| 2026-05-05 12:35 | 39.55092 | 2.73410 | 40 ft | 1 kts | 59° |
| 2026-05-05 12:35 | 39.55091 | 2.73410 | 40 ft | 0 kts | 59° |
| 2026-05-05 12:37 | 39.55092 | 2.73411 | 40 ft | 1 kts | 59° |
| 2026-05-05 12:37 | 39.55104 | 2.73437 | 40 ft | 6 kts | 59° |
| 2026-05-05 12:37 | 39.55132 | 2.73496 | 40 ft | 10 kts | 59° |
| 2026-05-05 12:38 | 39.55164 | 2.73566 | 44 ft | 11 kts | 59° |
| 2026-05-05 12:38 | 39.55223 | 2.73599 | 44 ft | 10 kts | 334° |
| 2026-05-05 12:38 | 39.55295 | 2.73544 | 44 ft | 14 kts | 329° |
| 2026-05-05 12:38 | 39.55388 | 2.73471 | 42 ft | 7 kts | 329° |
| 2026-05-05 12:39 | 39.55443 | 2.73461 | 44 ft | 11 kts | 26° |
| 2026-05-05 12:39 | 39.55494 | 2.73552 | 44 ft | 14 kts | 50° |
| 2026-05-05 12:39 | 39.55588 | 2.73526 | 43 ft | 17 kts | 328° |
| 2026-05-05 12:39 | 39.55673 | 2.73540 | 44 ft | 14 kts | 58° |
| 2026-05-05 12:40 | 39.55732 | 2.73664 | 44 ft | 18 kts | 58° |
| 2026-05-05 12:40 | 39.55803 | 2.73814 | 43 ft | 20 kts | 58° |
| 2026-05-05 12:40 | 39.55878 | 2.73972 | 43 ft | 21 kts | 58° |
| 2026-05-05 12:40 | 39.55931 | 2.74086 | 43 ft | 5 kts | 58° |
| 2026-05-05 12:41 | 39.55952 | 2.74130 | 43 ft | 7 kts | 58° |
| 2026-05-05 12:41 | 39.55979 | 2.74186 | 43 ft | 8 kts | 58° |
| 2026-05-05 12:41 | 39.56016 | 2.74249 | 43 ft | 10 kts | 38° |
| 2026-05-05 12:41 | 39.56082 | 2.74296 | 42 ft | 12 kts | 28° |
| 2026-05-05 12:42 | 39.56162 | 2.74349 | 43 ft | 14 kts | 16° |
| 2026-05-05 12:42 | 39.56228 | 2.74283 | 43 ft | 15 kts | 266° |
| 2026-05-05 12:42 | 39.56142 | 2.74085 | 44 ft | 54 kts | 238° |
| 2026-05-05 12:42 | 39.55817 | 2.73402 | 44 ft | 121 kts | 238° |
| 2026-05-05 12:43 | 39.55303 | 2.72304 | 225 ft | 149 kts | 238° |
| 2026-05-05 12:43 | 39.54742 | 2.71149 | 732 ft | 156 kts | 233° |
| 2026-05-05 12:43 | 39.54114 | 2.69959 | 1301 ft | 163 kts | 236° |
| 2026-05-05 12:43 | 39.53482 | 2.68717 | 1880 ft | 170 kts | 235° |
| 2026-05-05 12:44 | 39.52816 | 2.67381 | 2326 ft | 183 kts | 236° |
| 2026-05-05 12:44 | 39.52094 | 2.65952 | 2751 ft | 197 kts | 236° |
| 2026-05-05 12:44 | 39.51315 | 2.64422 | 3195 ft | 209 kts | 236° |
| 2026-05-05 12:44 | 39.50507 | 2.62831 | 3728 ft | 215 kts | 236° |
| 2026-05-05 12:45 | 39.49667 | 2.61174 | 4155 ft | 232 kts | 237° |
| 2026-05-05 12:45 | 39.48747 | 2.59352 | 4631 ft | 250 kts | 237° |
| 2026-05-05 12:45 | 39.47777 | 2.57441 | 5323 ft | 256 kts | 237° |
| 2026-05-05 12:45 | 39.46791 | 2.55504 | 6138 ft | 259 kts | 237° |
| 2026-05-05 12:46 | 39.45821 | 2.53534 | 6949 ft | 261 kts | 242° |
| 2026-05-05 12:46 | 39.45282 | 2.51290 | 7700 ft | 265 kts | 263° |
| 2026-05-05 12:46 | 39.45473 | 2.48911 | 8445 ft | 272 kts | 285° |
| 2026-05-05 12:46 | 39.46413 | 2.46761 | 9179 ft | 281 kts | 308° |
| 2026-05-05 12:47 | 39.47973 | 2.45178 | 9910 ft | 290 kts | 326° |
| 2026-05-05 12:47 | 39.49749 | 2.43901 | 10586 ft | 293 kts | 327° |
| 2026-05-05 12:47 | 39.51537 | 2.42632 | 11111 ft | 303 kts | 326° |
| 2026-05-05 12:47 | 39.53426 | 2.41253 | 11406 ft | 321 kts | 326° |
| 2026-05-05 12:48 | 39.55416 | 2.39775 | 11668 ft | 339 kts | 326° |
| 2026-05-05 12:48 | 39.57513 | 2.38204 | 11920 ft | 357 kts | 326° |
| 2026-05-05 12:48 | 39.59705 | 2.36545 | 12299 ft | 369 kts | 325° |
| 2026-05-05 12:48 | 39.61936 | 2.34852 | 12929 ft | 373 kts | 325° |
| 2026-05-05 12:49 | 39.64192 | 2.33139 | 13585 ft | 378 kts | 325° |
| 2026-05-05 12:49 | 39.66475 | 2.31410 | 14191 ft | 381 kts | 325° |
| 2026-05-05 12:49 | 39.68774 | 2.29673 | 14797 ft | 384 kts | 324° |
| 2026-05-05 12:49 | 39.71083 | 2.27919 | 15420 ft | 386 kts | 324° |
| 2026-05-05 12:50 | 39.73417 | 2.26147 | 16039 ft | 388 kts | 324° |
| 2026-05-05 12:50 | 39.75733 | 2.24392 | 16635 ft | 391 kts | 323° |
| 2026-05-05 12:50 | 39.78090 | 2.22603 | 17222 ft | 394 kts | 323° |
| 2026-05-05 12:50 | 39.80469 | 2.20796 | 17827 ft | 398 kts | 323° |
| 2026-05-05 12:51 | 39.82872 | 2.18972 | 18362 ft | 401 kts | 323° |
| 2026-05-05 12:51 | 39.85290 | 2.17130 | 18854 ft | 404 kts | 323° |
| 2026-05-05 12:51 | 39.87724 | 2.15272 | 19336 ft | 407 kts | 322° |
| 2026-05-05 12:51 | 39.90178 | 2.13398 | 19832 ft | 410 kts | 322° |
| 2026-05-05 12:52 | 39.92651 | 2.11524 | 20313 ft | 413 kts | 322° |
| 2026-05-05 12:52 | 39.95140 | 2.09620 | 20780 ft | 415 kts | 322° |
| 2026-05-05 12:52 | 39.97612 | 2.07736 | 21241 ft | 418 kts | 322° |
| 2026-05-05 12:52 | 40.00134 | 2.05819 | 21700 ft | 421 kts | 322° |
| 2026-05-05 12:53 | 40.02673 | 2.03883 | 22181 ft | 424 kts | 322° |
| 2026-05-05 12:53 | 40.05229 | 2.01927 | 22623 ft | 427 kts | 322° |
| 2026-05-05 12:53 | 40.07795 | 1.99950 | 23064 ft | 429 kts | 321° |
| 2026-05-05 12:53 | 40.10369 | 1.97935 | 23493 ft | 432 kts | 321° |
| 2026-05-05 12:54 | 40.15725 | 1.94189 | 24213 ft | 449 kts | 332° |
| 2026-05-05 12:54 | 40.18795 | 1.93155 | 24572 ft | 461 kts | 341° |
| 2026-05-05 12:54 | 40.21969 | 1.92442 | 24919 ft | 465 kts | 343° |
| 2026-05-05 12:55 | 40.25174 | 1.91754 | 25272 ft | 468 kts | 342° |
| 2026-05-05 12:55 | 40.28361 | 1.91050 | 25571 ft | 471 kts | 342° |
| 2026-05-05 12:55 | 40.31606 | 1.90315 | 25901 ft | 474 kts | 341° |
| 2026-05-05 12:55 | 40.34866 | 1.89558 | 26206 ft | 477 kts | 341° |
| 2026-05-05 12:56 | 40.38146 | 1.88787 | 26534 ft | 480 kts | 341° |
| 2026-05-05 12:56 | 40.41447 | 1.88014 | 26860 ft | 483 kts | 341° |
| 2026-05-05 12:56 | 40.44760 | 1.87238 | 27175 ft | 485 kts | 341° |
| 2026-05-05 12:56 | 40.48098 | 1.86461 | 27501 ft | 488 kts | 341° |
| 2026-05-05 12:57 | 40.51452 | 1.85676 | 27796 ft | 491 kts | 340° |
| 2026-05-05 12:57 | 40.54825 | 1.84887 | 28160 ft | 491 kts | 340° |
| 2026-05-05 12:57 | 40.58195 | 1.84101 | 28543 ft | 491 kts | 340° |
| 2026-05-05 12:57 | 40.61561 | 1.83316 | 28927 ft | 491 kts | 340° |
| 2026-05-05 12:58 | 40.64928 | 1.82530 | 29311 ft | 491 kts | 340° |
| 2026-05-05 12:58 | 40.68290 | 1.81742 | 29675 ft | 490 kts | 340° |
| 2026-05-05 12:58 | 40.71603 | 1.80962 | 30023 ft | 490 kts | 340° |
| 2026-05-05 12:58 | 40.74958 | 1.80168 | 30342 ft | 489 kts | 340° |
| 2026-05-05 12:59 | 40.78305 | 1.79375 | 30650 ft | 488 kts | 340° |
| 2026-05-05 12:59 | 40.81658 | 1.78583 | 30953 ft | 488 kts | 340° |
| 2026-05-05 12:59 | 40.85005 | 1.77792 | 31251 ft | 487 kts | 340° |
| 2026-05-05 13:00 | 40.91631 | 1.76223 | 31847 ft | 486 kts | 340° |
| 2026-05-05 13:00 | 40.94960 | 1.75429 | 32095 ft | 485 kts | 340° |
| 2026-05-05 13:01 | 41.04939 | 1.73081 | 32883 ft | 486 kts | 342° |
| 2026-05-05 13:01 | 41.08308 | 1.72519 | 33138 ft | 488 kts | 343° |
| 2026-05-05 13:01 | 41.11693 | 1.72008 | 33375 ft | 488 kts | 344° |
| 2026-05-05 13:01 | 41.15066 | 1.71511 | 33623 ft | 488 kts | 344° |
| 2026-05-05 13:02 | 41.18441 | 1.71005 | 33830 ft | 487 kts | 344° |
| 2026-05-05 13:02 | 41.21765 | 1.70497 | 33958 ft | 488 kts | 344° |
| 2026-05-05 13:02 | 41.28516 | 1.69461 | 33946 ft | 487 kts | 344° |
| 2026-05-05 13:03 | 41.35245 | 1.68413 | 33958 ft | 487 kts | 344° |
| 2026-05-05 13:03 | 41.41979 | 1.67348 | 33923 ft | 487 kts | 344° |
| 2026-05-05 13:04 | 41.48669 | 1.66291 | 33922 ft | 486 kts | 344° |
| 2026-05-05 13:04 | 41.55388 | 1.65245 | 33939 ft | 486 kts | 345° |
| 2026-05-05 13:05 | 41.62134 | 1.64218 | 33924 ft | 488 kts | 345° |
| 2026-05-05 13:05 | 41.68880 | 1.63154 | 33914 ft | 488 kts | 345° |
| 2026-05-05 13:06 | 41.75624 | 1.62091 | 33915 ft | 488 kts | 345° |
| 2026-05-05 13:06 | 41.82379 | 1.61026 | 33939 ft | 489 kts | 345° |
| 2026-05-05 13:07 | 41.89121 | 1.59963 | 33930 ft | 490 kts | 345° |
| 2026-05-05 13:07 | 41.95892 | 1.58891 | 33932 ft | 490 kts | 345° |
| 2026-05-05 13:08 | 42.02677 | 1.57811 | 33945 ft | 491 kts | 345° |
| 2026-05-05 13:08 | 42.09474 | 1.56734 | 33926 ft | 492 kts | 345° |
| 2026-05-05 13:09 | 42.16266 | 1.55656 | 33953 ft | 491 kts | 345° |
| 2026-05-05 13:09 | 42.23075 | 1.54571 | 33897 ft | 492 kts | 345° |
| 2026-05-05 13:10 | 42.29831 | 1.53486 | 33930 ft | 491 kts | 345° |
| 2026-05-05 13:10 | 42.36614 | 1.52401 | 33951 ft | 488 kts | 345° |
| 2026-05-05 13:11 | 42.43327 | 1.51321 | 33925 ft | 485 kts | 345° |
| 2026-05-05 13:11 | 42.50033 | 1.50243 | 33910 ft | 485 kts | 345° |
| 2026-05-05 13:12 | 42.56739 | 1.49164 | 33906 ft | 486 kts | 345° |
| 2026-05-05 13:12 | 42.63463 | 1.48084 | 33923 ft | 483 kts | 346° |
| 2026-05-05 13:13 | 42.70132 | 1.47010 | 33935 ft | 483 kts | 346° |
| 2026-05-05 13:13 | 42.76766 | 1.45941 | 33908 ft | 482 kts | 346° |
| 2026-05-05 13:14 | 42.83423 | 1.44874 | 33924 ft | 481 kts | 346° |
| 2026-05-05 13:14 | 42.90078 | 1.43782 | 33941 ft | 481 kts | 346° |
| 2026-05-05 13:15 | 42.96744 | 1.42701 | 33935 ft | 482 kts | 346° |
| 2026-05-05 13:15 | 43.03422 | 1.41628 | 33984 ft | 482 kts | 346° |
| 2026-05-05 13:16 | 43.08947 | 1.40728 | 33952 ft | 481 kts | 346° |
| 2026-05-05 13:16 | 43.16688 | 1.39458 | 33956 ft | 482 kts | 346° |
| 2026-05-05 13:17 | 43.23341 | 1.38354 | 33964 ft | 481 kts | 347° |
| 2026-05-05 13:17 | 43.28908 | 1.37438 | 33961 ft | 480 kts | 347° |
| 2026-05-05 13:18 | 43.35545 | 1.36352 | 33954 ft | 480 kts | 347° |
| 2026-05-05 13:18 | 43.42133 | 1.35265 | 33954 ft | 480 kts | 347° |
| 2026-05-05 13:19 | 43.48743 | 1.34181 | 33959 ft | 476 kts | 347° |
| 2026-05-05 13:19 | 43.55334 | 1.33087 | 33958 ft | 477 kts | 348° |
| 2026-05-05 13:20 | 43.61931 | 1.31984 | 33938 ft | 477 kts | 347° |
| 2026-05-05 13:20 | 43.68503 | 1.30860 | 33937 ft | 474 kts | 345° |
| 2026-05-05 13:21 | 43.74981 | 1.29199 | 33938 ft | 473 kts | 344° |
| 2026-05-05 13:21 | 43.81407 | 1.27529 | 33941 ft | 473 kts | 344° |
| 2026-05-05 13:22 | 43.87876 | 1.25862 | 33945 ft | 473 kts | 345° |
| 2026-05-05 13:22 | 43.94340 | 1.24193 | 33945 ft | 473 kts | 345° |
| 2026-05-05 13:23 | 44.00815 | 1.22519 | 33942 ft | 473 kts | 345° |
| 2026-05-05 13:23 | 44.07301 | 1.20833 | 33947 ft | 474 kts | 345° |
| 2026-05-05 13:24 | 44.13776 | 1.19114 | 33943 ft | 474 kts | 345° |
| 2026-05-05 13:24 | 44.20255 | 1.17422 | 33942 ft | 474 kts | 345° |
| 2026-05-05 13:25 | 44.26695 | 1.15737 | 33940 ft | 474 kts | 345° |
| 2026-05-05 13:25 | 44.33182 | 1.14083 | 33947 ft | 474 kts | 349° |
| 2026-05-05 13:26 | 44.36516 | 1.14081 | 33936 ft | 485 kts | 5° |
| 2026-05-05 13:26 | 44.39790 | 1.15331 | 33923 ft | 494 kts | 21° |
| 2026-05-05 13:26 | 44.45822 | 1.20118 | 33946 ft | 499 kts | 30° |
| 2026-05-05 13:27 | 44.51796 | 1.25098 | 33936 ft | 499 kts | 29° |
| 2026-05-05 13:27 | 44.57805 | 1.29991 | 33935 ft | 499 kts | 29° |
| 2026-05-05 13:28 | 44.63806 | 1.34858 | 33938 ft | 496 kts | 29° |
| 2026-05-05 13:28 | 44.69725 | 1.39703 | 33926 ft | 496 kts | 29° |
| 2026-05-05 13:29 | 44.75693 | 1.44586 | 33924 ft | 496 kts | 29° |
| 2026-05-05 13:29 | 44.81652 | 1.49478 | 33928 ft | 496 kts | 29° |
| 2026-05-05 13:30 | 44.87619 | 1.54374 | 33908 ft | 497 kts | 29° |
| 2026-05-05 13:30 | 44.93587 | 1.59308 | 33924 ft | 497 kts | 29° |
| 2026-05-05 13:31 | 44.99566 | 1.64255 | 33928 ft | 496 kts | 29° |
| 2026-05-05 13:31 | 45.05505 | 1.69181 | 33951 ft | 494 kts | 29° |
| 2026-05-05 13:32 | 45.11395 | 1.74078 | 33948 ft | 494 kts | 29° |
| 2026-05-05 13:32 | 45.17328 | 1.79030 | 33941 ft | 494 kts | 30° |
| 2026-05-05 13:33 | 45.23238 | 1.83968 | 33929 ft | 492 kts | 30° |
| 2026-05-05 13:33 | 45.29157 | 1.88920 | 33922 ft | 492 kts | 30° |
| 2026-05-05 13:34 | 45.35014 | 1.93837 | 33899 ft | 492 kts | 30° |
| 2026-05-05 13:34 | 45.40915 | 1.98804 | 33915 ft | 492 kts | 30° |
| 2026-05-05 13:35 | 45.46815 | 2.03779 | 33913 ft | 492 kts | 30° |
| 2026-05-05 13:35 | 45.52705 | 2.08766 | 33907 ft | 492 kts | 30° |
| 2026-05-05 13:36 | 45.58588 | 2.13752 | 33911 ft | 490 kts | 30° |
| 2026-05-05 13:36 | 45.64437 | 2.18725 | 33901 ft | 489 kts | 30° |
| 2026-05-05 13:37 | 45.70280 | 2.23699 | 33895 ft | 489 kts | 30° |
| 2026-05-05 13:37 | 45.76090 | 2.28660 | 33892 ft | 488 kts | 31° |
| 2026-05-05 13:38 | 45.81897 | 2.33633 | 33890 ft | 486 kts | 31° |
| 2026-05-05 13:38 | 45.87702 | 2.38653 | 33875 ft | 487 kts | 31° |
| 2026-05-05 13:39 | 45.93524 | 2.43677 | 33876 ft | 488 kts | 31° |
| 2026-05-05 13:39 | 45.99351 | 2.48689 | 33874 ft | 487 kts | 31° |
| 2026-05-05 13:40 | 46.05132 | 2.53669 | 33871 ft | 487 kts | 31° |
| 2026-05-05 13:40 | 46.10938 | 2.58705 | 33869 ft | 487 kts | 31° |
| 2026-05-05 13:41 | 46.16733 | 2.63750 | 33865 ft | 484 kts | 31° |
| 2026-05-05 13:41 | 46.22503 | 2.68770 | 33862 ft | 484 kts | 31° |
| 2026-05-05 13:42 | 46.28275 | 2.73802 | 33861 ft | 484 kts | 31° |
| 2026-05-05 13:42 | 46.34011 | 2.78814 | 33856 ft | 484 kts | 32° |
| 2026-05-05 13:43 | 46.39783 | 2.83872 | 33845 ft | 485 kts | 32° |
| 2026-05-05 13:43 | 46.45558 | 2.88951 | 33842 ft | 485 kts | 32° |
| 2026-05-05 13:44 | 46.51326 | 2.94043 | 33843 ft | 485 kts | 32° |
| 2026-05-05 13:44 | 46.57046 | 2.99107 | 33843 ft | 482 kts | 32° |
| 2026-05-05 13:45 | 46.62774 | 3.04182 | 33838 ft | 482 kts | 32° |
| 2026-05-05 13:45 | 46.68517 | 3.09281 | 33842 ft | 482 kts | 32° |
| 2026-05-05 13:46 | 46.74241 | 3.14381 | 33843 ft | 482 kts | 32° |
| 2026-05-05 13:46 | 46.79965 | 3.19499 | 33841 ft | 482 kts | 32° |
| 2026-05-05 13:47 | 46.85652 | 3.24587 | 33843 ft | 482 kts | 32° |
| 2026-05-05 13:47 | 46.91381 | 3.29748 | 33835 ft | 485 kts | 32° |
| 2026-05-05 13:48 | 46.97103 | 3.34926 | 33839 ft | 482 kts | 33° |
| 2026-05-05 13:48 | 47.02809 | 3.40086 | 33839 ft | 482 kts | 33° |
| 2026-05-05 13:49 | 47.08520 | 3.45221 | 33834 ft | 482 kts | 32° |
| 2026-05-05 13:49 | 47.14236 | 3.50383 | 33824 ft | 480 kts | 33° |
| 2026-05-05 13:50 | 47.19911 | 3.55542 | 33821 ft | 479 kts | 33° |
| 2026-05-05 13:50 | 47.25548 | 3.60680 | 33817 ft | 479 kts | 33° |
| 2026-05-05 13:51 | 47.31219 | 3.65862 | 33816 ft | 479 kts | 33° |
| 2026-05-05 13:51 | 47.36872 | 3.71046 | 33807 ft | 477 kts | 33° |
| 2026-05-05 13:52 | 47.42505 | 3.76218 | 33810 ft | 477 kts | 33° |
| 2026-05-05 13:52 | 47.48148 | 3.81416 | 33807 ft | 477 kts | 33° |
| 2026-05-05 13:53 | 47.53735 | 3.86588 | 33800 ft | 476 kts | 33° |
| 2026-05-05 13:53 | 47.59324 | 3.91778 | 33796 ft | 473 kts | 33° |
| 2026-05-05 13:54 | 47.64907 | 3.96955 | 33798 ft | 473 kts | 33° |
| 2026-05-05 13:54 | 47.70499 | 4.02132 | 33793 ft | 473 kts | 33° |
| 2026-05-05 13:55 | 47.76063 | 4.07331 | 33787 ft | 470 kts | 34° |
| 2026-05-05 13:55 | 47.81585 | 4.12522 | 33785 ft | 469 kts | 34° |
| 2026-05-05 13:56 | 47.87112 | 4.17730 | 33785 ft | 470 kts | 34° |
| 2026-05-05 13:56 | 47.92642 | 4.22934 | 33772 ft | 470 kts | 34° |
| 2026-05-05 13:57 | 47.98135 | 4.28133 | 33777 ft | 469 kts | 34° |
| 2026-05-05 13:57 | 48.03639 | 4.33349 | 33775 ft | 468 kts | 34° |
| 2026-05-05 13:58 | 48.09152 | 4.38551 | 33773 ft | 468 kts | 34° |
| 2026-05-05 13:58 | 48.14672 | 4.43739 | 33766 ft | 467 kts | 35° |
| 2026-05-05 13:59 | 48.22848 | 4.51601 | 33771 ft | 465 kts | 35° |
| 2026-05-05 14:00 | 48.30109 | 4.58555 | 33772 ft | 465 kts | 35° |
| 2026-05-05 14:00 | 48.36450 | 4.64644 | 33771 ft | 466 kts | 35° |
| 2026-05-05 14:01 | 48.41932 | 4.69878 | 33772 ft | 466 kts | 35° |
| 2026-05-05 14:01 | 48.47409 | 4.75107 | 33755 ft | 466 kts | 35° |
| 2026-05-05 14:02 | 48.52891 | 4.80399 | 33807 ft | 467 kts | 35° |
| 2026-05-05 14:02 | 48.58361 | 4.85690 | 33810 ft | 467 kts | 36° |
| 2026-05-05 14:03 | 48.63817 | 4.91009 | 33811 ft | 466 kts | 36° |
| 2026-05-05 14:03 | 48.69236 | 4.96288 | 33829 ft | 466 kts | 36° |
| 2026-05-05 14:04 | 48.74686 | 5.01631 | 33817 ft | 466 kts | 36° |
| 2026-05-05 14:04 | 48.79229 | 5.06057 | 33802 ft | 466 kts | 36° |
| 2026-05-05 14:05 | 48.84678 | 5.11403 | 33794 ft | 466 kts | 36° |
| 2026-05-05 14:05 | 48.90124 | 5.16779 | 33790 ft | 466 kts | 36° |
| 2026-05-05 14:06 | 48.95552 | 5.22165 | 33795 ft | 466 kts | 36° |
| 2026-05-05 14:06 | 49.01000 | 5.27518 | 33788 ft | 466 kts | 36° |
| 2026-05-05 14:07 | 49.06449 | 5.32940 | 33806 ft | 468 kts | 36° |
| 2026-05-05 14:07 | 49.11919 | 5.38370 | 33794 ft | 469 kts | 36° |
| 2026-05-05 14:08 | 49.17354 | 5.43793 | 33789 ft | 468 kts | 36° |
| 2026-05-05 14:08 | 49.22834 | 5.49282 | 33800 ft | 471 kts | 36° |
| 2026-05-05 14:09 | 49.28324 | 5.54783 | 33806 ft | 471 kts | 36° |
| 2026-05-05 14:09 | 49.33810 | 5.60304 | 33809 ft | 471 kts | 36° |
| 2026-05-05 14:10 | 49.39262 | 5.65795 | 33797 ft | 472 kts | 36° |
| 2026-05-05 14:10 | 49.44780 | 5.71373 | 33805 ft | 474 kts | 37° |
| 2026-05-05 14:11 | 49.50300 | 5.76959 | 33815 ft | 475 kts | 36° |
| 2026-05-05 14:11 | 49.55827 | 5.82519 | 33818 ft | 475 kts | 36° |
| 2026-05-05 14:12 | 49.61368 | 5.88047 | 33808 ft | 480 kts | 37° |
| 2026-05-05 14:12 | 49.67000 | 5.93682 | 33824 ft | 483 kts | 37° |
| 2026-05-05 14:13 | 49.72637 | 5.99337 | 33767 ft | 476 kts | 37° |
| 2026-05-05 14:13 | 49.75402 | 6.02121 | 33417 ft | 470 kts | 37° |
| 2026-05-05 14:13 | 49.78100 | 6.04854 | 33019 ft | 468 kts | 37° |
| 2026-05-05 14:14 | 49.80822 | 6.07614 | 32600 ft | 467 kts | 37° |
| 2026-05-05 14:14 | 49.83545 | 6.10381 | 32181 ft | 469 kts | 36° |
| 2026-05-05 14:14 | 49.86320 | 6.13053 | 31765 ft | 471 kts | 30° |
| 2026-05-05 14:14 | 49.89286 | 6.15237 | 31359 ft | 472 kts | 26° |
| 2026-05-05 14:15 | 49.92285 | 6.17335 | 30974 ft | 471 kts | 26° |
| 2026-05-05 14:15 | 49.95275 | 6.19416 | 30573 ft | 470 kts | 26° |
| 2026-05-05 14:15 | 49.98254 | 6.21523 | 30191 ft | 469 kts | 27° |
| 2026-05-05 14:15 | 50.01207 | 6.23679 | 29773 ft | 468 kts | 27° |
| 2026-05-05 14:16 | 50.04144 | 6.25838 | 29306 ft | 467 kts | 26° |
| 2026-05-05 14:16 | 50.07072 | 6.27991 | 28847 ft | 465 kts | 26° |
| 2026-05-05 14:16 | 50.09994 | 6.30136 | 28397 ft | 462 kts | 26° |
| 2026-05-05 14:16 | 50.12889 | 6.32266 | 27958 ft | 459 kts | 26° |
| 2026-05-05 14:17 | 50.15764 | 6.34383 | 27537 ft | 456 kts | 26° |
| 2026-05-05 14:17 | 50.18633 | 6.36496 | 27112 ft | 453 kts | 26° |
| 2026-05-05 14:17 | 50.21470 | 6.38585 | 26701 ft | 450 kts | 26° |
| 2026-05-05 14:17 | 50.24259 | 6.40646 | 26296 ft | 448 kts | 26° |
| 2026-05-05 14:18 | 50.27072 | 6.42729 | 25887 ft | 447 kts | 27° |
| 2026-05-05 14:18 | 50.29879 | 6.44814 | 25488 ft | 445 kts | 27° |
| 2026-05-05 14:18 | 50.32671 | 6.46885 | 25086 ft | 442 kts | 27° |
| 2026-05-05 14:18 | 50.35434 | 6.48979 | 24698 ft | 439 kts | 29° |
| 2026-05-05 14:19 | 50.38034 | 6.51463 | 24317 ft | 435 kts | 35° |
| 2026-05-05 14:19 | 50.40558 | 6.54074 | 23945 ft | 433 kts | 35° |
| 2026-05-05 14:19 | 50.43059 | 6.56679 | 23572 ft | 430 kts | 35° |
| 2026-05-05 14:19 | 50.45547 | 6.59272 | 23161 ft | 427 kts | 35° |
| 2026-05-05 14:20 | 50.48017 | 6.61848 | 22717 ft | 426 kts | 35° |
| 2026-05-05 14:20 | 50.50481 | 6.64418 | 22298 ft | 423 kts | 35° |
| 2026-05-05 14:20 | 50.52925 | 6.66971 | 21873 ft | 421 kts | 35° |
| 2026-05-05 14:20 | 50.55329 | 6.69490 | 21454 ft | 418 kts | 35° |
| 2026-05-05 14:21 | 50.57740 | 6.72024 | 21048 ft | 415 kts | 35° |
| 2026-05-05 14:21 | 50.60137 | 6.74535 | 20627 ft | 413 kts | 35° |
| 2026-05-05 14:21 | 50.62529 | 6.77050 | 20189 ft | 410 kts | 35° |
| 2026-05-05 14:21 | 50.64890 | 6.79535 | 19704 ft | 406 kts | 34° |
| 2026-05-05 14:22 | 50.67236 | 6.81991 | 19211 ft | 403 kts | 34° |
| 2026-05-05 14:22 | 50.69692 | 6.84097 | 18730 ft | 402 kts | 24° |
| 2026-05-05 14:22 | 50.72342 | 6.85442 | 18253 ft | 399 kts | 12° |
| 2026-05-05 14:22 | 50.75089 | 6.85943 | 17732 ft | 396 kts | 0° |
| 2026-05-05 14:23 | 50.77828 | 6.85810 | 17208 ft | 392 kts | 356° |
| 2026-05-05 14:23 | 50.80539 | 6.85568 | 16687 ft | 389 kts | 356° |
| 2026-05-05 14:23 | 50.83229 | 6.85333 | 16176 ft | 386 kts | 356° |
| 2026-05-05 14:23 | 50.85899 | 6.85111 | 15664 ft | 383 kts | 356° |
| 2026-05-05 14:24 | 50.88554 | 6.84902 | 15176 ft | 380 kts | 356° |
| 2026-05-05 14:24 | 50.91191 | 6.84643 | 14684 ft | 377 kts | 354° |
| 2026-05-05 14:24 | 50.93764 | 6.84409 | 14204 ft | 374 kts | 3° |
| 2026-05-05 14:24 | 50.96290 | 6.85274 | 13738 ft | 371 kts | 22° |
| 2026-05-05 14:25 | 50.98477 | 6.87376 | 13213 ft | 367 kts | 42° |
| 2026-05-05 14:25 | 51.00132 | 6.90402 | 12719 ft | 363 kts | 56° |
| 2026-05-05 14:25 | 51.01580 | 6.93670 | 12217 ft | 360 kts | 56° |
| 2026-05-05 14:25 | 51.03019 | 6.96901 | 11734 ft | 357 kts | 56° |
| 2026-05-05 14:26 | 51.04471 | 7.00085 | 11248 ft | 355 kts | 55° |
| 2026-05-05 14:26 | 51.05930 | 7.03241 | 10756 ft | 350 kts | 54° |
| 2026-05-05 14:26 | 51.07373 | 7.06329 | 10270 ft | 344 kts | 54° |
| 2026-05-05 14:26 | 51.08786 | 7.09350 | 9792 ft | 338 kts | 54° |
| 2026-05-05 14:27 | 51.10191 | 7.12355 | 9114 ft | 337 kts | 54° |
| 2026-05-05 14:27 | 51.11593 | 7.15349 | 8367 ft | 338 kts | 54° |
| 2026-05-05 14:27 | 51.13005 | 7.18354 | 7629 ft | 340 kts | 54° |
| 2026-05-05 14:27 | 51.14420 | 7.21382 | 6898 ft | 341 kts | 54° |
| 2026-05-05 14:28 | 51.15820 | 7.24388 | 6188 ft | 342 kts | 54° |
| 2026-05-05 14:28 | 51.17239 | 7.27428 | 5516 ft | 341 kts | 54° |
| 2026-05-05 14:28 | 51.18626 | 7.30427 | 5107 ft | 330 kts | 56° |
| 2026-05-05 14:28 | 51.19763 | 7.33516 | 4826 ft | 316 kts | 62° |
| 2026-05-05 14:29 | 51.20776 | 7.36545 | 4568 ft | 304 kts | 63° |
| 2026-05-05 14:29 | 51.21743 | 7.39464 | 4304 ft | 292 kts | 63° |
| 2026-05-05 14:29 | 51.22768 | 7.42184 | 4045 ft | 282 kts | 49° |
| 2026-05-05 14:29 | 51.24277 | 7.44000 | 3955 ft | 265 kts | 23° |
| 2026-05-05 14:30 | 51.26005 | 7.44520 | 3946 ft | 244 kts | 355° |
| 2026-05-05 14:30 | 51.27603 | 7.44007 | 3957 ft | 226 kts | 344° |
| 2026-05-05 14:30 | 51.29179 | 7.43281 | 3996 ft | 245 kts | 343° |
| 2026-05-05 14:30 | 51.30820 | 7.42507 | 4011 ft | 247 kts | 343° |
| 2026-05-05 14:31 | 51.32449 | 7.41738 | 4010 ft | 247 kts | 343° |
| 2026-05-05 14:31 | 51.34098 | 7.40959 | 3997 ft | 247 kts | 343° |
| 2026-05-05 14:31 | 51.35739 | 7.40159 | 3996 ft | 246 kts | 343° |
| 2026-05-05 14:31 | 51.37376 | 7.39346 | 4001 ft | 246 kts | 343° |
| 2026-05-05 14:32 | 51.39009 | 7.38539 | 4012 ft | 245 kts | 343° |
| 2026-05-05 14:32 | 51.40562 | 7.37767 | 3993 ft | 224 kts | 343° |
| 2026-05-05 14:32 | 51.41971 | 7.37067 | 3997 ft | 201 kts | 345° |
| 2026-05-05 14:32 | 51.43278 | 7.37162 | 3807 ft | 181 kts | 26° |
| 2026-05-05 14:33 | 51.44060 | 7.38528 | 3626 ft | 156 kts | 63° |
| 2026-05-05 14:33 | 51.44466 | 7.40010 | 3417 ft | 140 kts | 66° |
| 2026-05-05 14:33 | 51.44872 | 7.41395 | 3202 ft | 137 kts | 64° |
| 2026-05-05 14:33 | 51.45323 | 7.42744 | 3019 ft | 146 kts | 62° |
| 2026-05-05 14:34 | 51.45839 | 7.44224 | 2833 ft | 154 kts | 61° |
| 2026-05-05 14:34 | 51.46359 | 7.45703 | 2625 ft | 152 kts | 59° |
| 2026-05-05 14:34 | 51.46879 | 7.47178 | 2401 ft | 151 kts | 60° |
| 2026-05-05 14:34 | 51.47393 | 7.48639 | 2180 ft | 150 kts | 60° |
| 2026-05-05 14:35 | 51.47903 | 7.50085 | 1949 ft | 150 kts | 59° |
| 2026-05-05 14:35 | 51.48397 | 7.51487 | 1761 ft | 137 kts | 58° |
| 2026-05-05 14:35 | 51.48862 | 7.52808 | 1562 ft | 136 kts | 58° |
| 2026-05-05 14:35 | 51.49322 | 7.54113 | 1374 ft | 135 kts | 58° |
| 2026-05-05 14:36 | 51.49783 | 7.55421 | 1198 ft | 134 kts | 57° |
| 2026-05-05 14:36 | 51.50252 | 7.56740 | 949 ft | 138 kts | 57° |
| 2026-05-05 14:36 | 51.50711 | 7.58075 | 735 ft | 136 kts | 58° |
| 2026-05-05 14:36 | 51.51185 | 7.59401 | 595 ft | 136 kts | 57° |
| 2026-05-05 14:37 | 51.51653 | 7.60711 | 431 ft | 133 kts | 57° |
| 2026-05-05 14:37 | 51.52025 | 7.61769 | 417 ft | 71 kts | 60° |
| 2026-05-05 14:37 | 51.52173 | 7.62188 | 419 ft | 37 kts | 60° |
| 2026-05-05 14:37 | 51.52273 | 7.62474 | 416 ft | 20 kts | 61° |
| 2026-05-05 14:38 | 51.52329 | 7.62649 | 412 ft | 12 kts | 91° |
| 2026-05-05 14:38 | 51.52272 | 7.62754 | 415 ft | 14 kts | 151° |
| 2026-05-05 14:38 | 51.52184 | 7.62750 | 413 ft | 15 kts | 236° |
| 2026-05-05 14:38 | 51.52127 | 7.62602 | 414 ft | 17 kts | 240° |
| 2026-05-05 14:39 | 51.52084 | 7.62483 | 418 ft | 12 kts | 240° |
| 2026-05-05 14:39 | 51.52040 | 7.62361 | 417 ft | 14 kts | 240° |
| 2026-05-05 14:39 | 51.51992 | 7.62217 | 416 ft | 16 kts | 242° |
| 2026-05-05 14:39 | 51.51936 | 7.62056 | 417 ft | 17 kts | 241° |
| 2026-05-05 14:40 | 51.51874 | 7.61878 | 419 ft | 19 kts | 240° |
| 2026-05-05 14:40 | 51.51803 | 7.61680 | 418 ft | 22 kts | 240° |
| 2026-05-05 14:40 | 51.51755 | 7.61545 | 430 ft | 5 kts | 240° |
| 2026-05-05 14:40 | 51.51731 | 7.61479 | 429 ft | 9 kts | 240° |
| 2026-05-05 14:41 | 51.51696 | 7.61383 | 427 ft | 11 kts | 236° |
| 2026-05-05 14:41 | 51.51633 | 7.61297 | 433 ft | 6 kts | 215° |
| 2026-05-05 14:41 | 51.51604 | 7.61241 | 436 ft | 3 kts | 240° |
| 2026-05-05 14:42 | 51.51602 | 7.61236 | 433 ft | 0 kts | 240° |
| 2026-05-05 14:44 | 51.51604 | 7.61240 | 437 ft | 3 kts | 241° |
| 2026-05-05 14:44 | 51.51609 | 7.61259 | 435 ft | 3 kts | 295° |
| 2026-05-05 14:44 | 51.51600 | 7.61271 | 435 ft | 3 kts | 332° |
| 2026-05-05 14:45 | 51.51584 | 7.61284 | 425 ft | 0 kts | 332° |